Flight APNVIP2X

  • Submitted By: Krzysztof H. Blaszkow
  • Departure Airport: Ireland West Airport Knock (EIKN)
  • Arrival Airport: Dublin (EIDW)
  • Aircraft: BE58 (EJ-IAWH)
  • Flight Time: 01.21.35
  • Date Submitted: 04/09/2017
  • Status: Accepted
Flight Details
Gross Revenue:
(5 load / € 4,000.00 per unit
€ 20,000.00
Fuel Cost:
(75.2963 fuel used @ 0.45 / unit)
€ 33.88

Additional Log Information:

View Log

[16:48] - Carenado BARON B58 GOLD GREEN
[16:48] - Flight APNVIP2X is ready to depart EIKN with a final destination of EIDW.
[16:48] - Parking Brake Applied
[16:48] - Beacon Light ON
[16:48] - Wing Lights ON
[16:48] - Boarding
[16:48] - ADF1 - 284.0
[16:48] - ADF2 - 240.0
[16:48] - NAV1 - 117.40
[16:48] - NAV2 - 110.60
[16:48] - COM1 - 122.80
[16:48] - COM2 - 127.80
[16:48] - Transponder - 2000
[16:53] - Engine 1 Started
[16:53] - Engine 2 Started
[16:53] - Parking Brake Released
[16:53] - Taxi Lights ON 3AGL
[16:56] - Landing Lights ON 3AGL
[16:56] - Strobe Lights ON 3AGL
[16:56] - Taxi Lights OFF 3AGL
[17:00] - Taxiing to Runway
[17:00] - Taking Off with 5 passengers on board
[17:00] - Take off at 95kts, with a pitch of 5deg and 217lbs of fuel on board
[17:00] - Wind Heading 305 | Wind Speed 14kts | Temperature 9 deg C
[17:00] - METAR Departure: EIKN 091530Z 33012KT 9999 BKN004 BKN008 BKN030 08/07 Q1021 BECMG SCT012 BKN020

[17:00] - Gear up at 95AGL
[17:01] - Climbing to TOC
[17:04] - AutoPilot Engaged at 4754AGL
[17:07] - NAV1 - 114.90
[17:10] - Landing Lights OFF 8754AGL
[17:16] - TOC reached
[17:16] - Cruise started
[17:19] - NAV1 - 111.35
[17:32] - TOD reached
[17:32] - Descending to destination
[17:35] - Landing Lights ON 10449AGL
[17:55] - Landing Shortly
[18:02] - Flaps to position 1 at 728ft and 177kts
[18:03] - Gear down at 285AGL
[18:03] - AutoPilot Disengaged at 144AGL
[18:03] - Landed at -136fpm. With 55lbs of fuel onboard and a pitch angle of 1deg.
[18:03] - Wind Heading 265 | Wind Speed 10kts | Temperature 12 deg C
[18:03] - METAR Arrival: EIDW 091630Z 28013KT 9999 -RA FEW016 BKN020 BKN030 10/08 Q1020 NOSIG

[18:03] - Flaps to position 0
[18:04] - Landing Lights OFF 3AGL
[18:04] - Strobe Lights OFF 3AGL
[18:04] - Taxiing to Gate
[18:09] - Parking Brake Applied
[18:09] - Arrived safely at EIDW. We hope you enjoyed your flight!
[18:10] - Engine 1 Stopped
[18:10] - Engine 2 Stopped
[18:10] - Carenado BARON B58 GOLD GREEN
[18:10] - MaxSim Rate: 1x
[18:10] - SiouxAcars ver: 1.0.1.2

Route Map